Time;durP1;ratioP1;P1;durP2;ratioP2;P2;SDS_P1;SDS_P2;PMS_P1;PMS_P2;Temp;Humidity;BMP_temperature;BMP_pressure;BME280_temperature;BME280_humidity;BME280_pressure;Samples;Min_cycle;Max_cycle;Signal;HPM_P1;HPM_P2
2023/11/04 00:00:06;;;;;;;1.87;1.00;;;10.30;99.90;;;;;;4883126;29;20283;-82
2023/11/04 00:02:41;;;;;;;1.30;1.13;;;10.20;99.90;;;;;;4899272;29;20694;-82
2023/11/04 00:05:26;;;;;;;2.63;1.10;;;10.20;99.90;;;;;;4899834;29;20226;-82
2023/11/04 00:08:01;;;;;;;1.47;1.10;;;10.20;99.90;;;;;;4898822;29;20188;-82
2023/11/04 00:10:30;;;;;;;2.07;1.20;;;9.90;99.90;;;;;;4913460;29;20307;-82
2023/11/04 00:13:02;;;;;;;1.47;1.03;;;10.00;99.90;;;;;;4913202;29;20207;-82
2023/11/04 00:15:40;;;;;;;1.60;1.10;;;10.00;99.90;;;;;;4882442;29;20210;-82
2023/11/04 00:18:20;;;;;;;1.83;1.10;;;10.00;99.90;;;;;;4883784;29;20226;-80
2023/11/04 00:20:51;;;;;;;1.80;1.00;;;9.90;99.90;;;;;;4925931;29;20240;-81
2023/11/04 00:23:23;;;;;;;1.43;0.80;;;9.80;99.90;;;;;;4936094;28;20595;-80
2023/11/04 00:25:52;;;;;;;1.47;1.00;;;10.10;99.90;;;;;;4921052;29;20194;-82
2023/11/04 00:28:23;;;;;;;2.13;0.87;;;10.00;99.90;;;;;;4920654;29;20208;-81
2023/11/04 00:31:07;;;;;;;1.10;0.97;;;9.90;99.90;;;;;;4938710;29;20229;-82
2023/11/04 00:33:36;;;;;;;1.53;0.90;;;9.90;99.90;;;;;;4936717;29;20226;-81
2023/11/04 00:36:09;;;;;;;1.57;1.00;;;9.90;99.90;;;;;;4937319;29;20191;-82
2023/11/04 00:38:42;;;;;;;2.20;1.10;;;9.90;99.90;;;;;;4936416;29;20670;-81
2023/11/04 00:41:13;;;;;;;1.27;0.67;;;9.80;99.90;;;;;;4936891;29;20213;-81
2023/11/04 00:43:45;;;;;;;1.60;0.70;;;9.70;99.90;;;;;;4936477;29;20292;-80
2023/11/04 00:46:16;;;;;;;3.93;0.80;;;9.70;99.90;;;;;;4953541;29;20278;-81
2023/11/04 00:48:50;;;;;;;1.00;0.80;;;9.60;99.90;;;;;;4954877;28;20320;-82
2023/11/04 00:51:22;;;;;;;1.57;0.87;;;9.60;99.90;;;;;;4955830;28;20254;-81
2023/11/04 00:53:52;;;;;;;1.50;0.70;;;9.60;99.90;;;;;;4955500;28;20202;-82
2023/11/04 00:56:20;;;;;;;1.10;0.83;;;9.40;99.90;;;;;;4955949;28;20205;-83
2023/11/04 00:58:52;;;;;;;1.37;0.70;;;9.40;99.90;;;;;;4956095;28;20204;-81
2023/11/04 01:01:21;;;;;;;2.23;0.90;;;9.40;99.90;;;;;;4955548;28;20241;-81
2023/11/04 01:03:56;;;;;;;0.93;0.80;;;9.40;99.90;;;;;;4954943;28;20212;-81
2023/11/04 01:06:27;;;;;;;0.70;0.70;;;9.40;99.90;;;;;;4955830;28;20404;-82
2023/11/04 01:09:04;;;;;;;1.10;0.77;;;9.20;99.90;;;;;;4955761;28;20227;-81
2023/11/04 01:11:34;;;;;;;1.43;0.70;;;9.10;99.90;;;;;;4955530;28;20284;-82
2023/11/04 01:14:06;;;;;;;1.00;0.60;;;9.10;99.90;;;;;;4972265;28;20204;-82
2023/11/04 01:16:42;;;;;;;0.90;0.70;;;9.00;99.90;;;;;;4956305;28;20178;-82
2023/11/04 01:19:11;;;;;;;0.60;0.60;;;8.90;99.90;;;;;;4972763;28;20221;-81
2023/11/04 01:21:41;;;;;;;1.80;0.70;;;8.80;99.90;;;;;;4972275;28;20197;-81
2023/11/04 01:24:12;;;;;;;1.07;0.50;;;8.80;99.90;;;;;;4939648;28;20221;-81
2023/11/04 01:26:42;;;;;;;3.63;0.70;;;8.70;99.90;;;;;;4939505;28;20197;-82
2023/11/04 01:29:12;;;;;;;0.73;0.60;;;8.50;99.90;;;;;;4939294;28;20209;-82
2023/11/04 01:31:40;;;;;;;1.10;0.60;;;8.60;99.90;;;;;;4972115;28;20192;-82
2023/11/04 01:34:11;;;;;;;0.80;0.60;;;8.60;99.90;;;;;;4972395;28;20243;-82
2023/11/04 01:36:42;;;;;;;0.97;0.50;;;8.50;99.90;;;;;;4955222;28;20217;-82
2023/11/04 01:39:26;;;;;;;3.23;0.77;;;8.50;99.90;;;;;;4957180;28;20241;-82
2023/11/04 01:42:10;;;;;;;1.00;0.60;;;8.40;99.90;;;;;;4939720;28;20211;-82
2023/11/04 01:44:39;;;;;;;0.47;0.47;;;8.60;99.90;;;;;;4955249;28;20675;-82
2023/11/04 01:47:14;;;;;;;1.57;0.60;;;8.40;99.90;;;;;;4958443;28;20255;-82
2023/11/04 01:50:00;;;;;;;3.10;0.60;;;8.30;99.90;;;;;;4955137;29;20232;-80
2023/11/04 01:52:46;;;;;;;0.80;0.50;;;8.30;99.90;;;;;;4957113;29;20252;-82
2023/11/04 01:55:15;;;;;;;1.47;0.50;;;8.30;99.90;;;;;;4939192;29;20198;-81
2023/11/04 01:57:44;;;;;;;1.03;0.50;;;8.20;99.90;;;;;;4939532;29;20252;-82
2023/11/04 02:00:20;;;;;;;0.60;0.57;;;8.20;99.90;;;;;;4939963;29;20213;-81
2023/11/04 02:02:54;;;;;;;2.47;0.50;;;8.10;99.90;;;;;;4939238;29;20873;-81
2023/11/04 02:05:26;;;;;;;1.40;0.63;;;7.90;99.90;;;;;;4939943;29;20197;-83
2023/11/04 02:07:59;;;;;;;0.80;0.50;;;8.00;99.90;;;;;;4938934;29;20324;-83
2023/11/04 02:10:30;;;;;;;0.80;0.70;;;8.00;99.90;;;;;;4956379;29;20207;-84
2023/11/04 02:13:00;;;;;;;0.93;0.60;;;7.90;99.90;;;;;;4939020;29;20209;-82
2023/11/04 02:15:34;;;;;;;0.50;0.50;;;7.90;99.90;;;;;;4939218;29;20570;-82
2023/11/04 02:18:10;;;;;;;2.07;0.50;;;7.90;99.90;;;;;;4938844;29;20225;-82
2023/11/04 02:20:51;;;;;;;1.23;0.50;;;7.60;99.90;;;;;;4922638;29;20233;-80
2023/11/04 02:23:20;;;;;;;3.60;0.60;;;7.80;99.90;;;;;;4922959;29;20198;-83
2023/11/04 02:25:53;;;;;;;0.83;0.60;;;7.80;99.90;;;;;;4938917;29;20213;-82
2023/11/04 02:28:30;;;;;;;0.93;0.63;;;7.80;99.90;;;;;;4937543;29;20283;-81
2023/11/04 02:31:02;;;;;;;0.90;0.87;;;7.80;99.90;;;;;;4938803;29;20202;-83
2023/11/04 02:33:34;;;;;;;0.83;0.60;;;7.80;99.90;;;;;;4939415;29;20222;-82
2023/11/04 02:36:07;;;;;;;1.73;0.80;;;7.80;99.90;;;;;;4938750;29;20561;-83
2023/11/04 02:38:46;;;;;;;0.83;0.63;;;7.70;99.90;;;;;;4940070;29;20265;-82
2023/11/04 02:41:23;;;;;;;1.90;0.87;;;7.80;99.90;;;;;;4923477;29;20241;-82
2023/11/04 02:43:58;;;;;;;2.57;0.70;;;7.70;99.90;;;;;;4939999;29;20190;-83
2023/11/04 02:46:30;;;;;;;1.00;0.90;;;7.70;99.90;;;;;;4923280;29;20198;-83
2023/11/04 02:49:00;;;;;;;1.17;0.80;;;7.70;99.90;;;;;;4948212;28;20229;-82
2023/11/04 02:51:29;;;;;;;1.03;0.70;;;7.90;99.90;;;;;;4957265;28;20223;-82
2023/11/04 02:54:01;;;;;;;0.67;0.60;;;7.70;99.90;;;;;;4941616;28;20201;-83
2023/11/04 02:56:38;;;;;;;1.23;0.70;;;7.80;99.90;;;;;;4957023;28;20224;-82
2023/11/04 02:59:11;;;;;;;0.83;0.80;;;7.80;99.90;;;;;;4957869;28;20186;-82
2023/11/04 03:01:50;;;;;;;1.83;0.70;;;7.70;99.90;;;;;;4957121;28;20224;-81
2023/11/04 03:04:29;;;;;;;1.03;0.80;;;7.90;99.90;;;;;;4958182;28;20217;-82
2023/11/04 03:07:05;;;;;;;0.87;0.80;;;7.60;99.90;;;;;;4957247;28;20204;-83
2023/11/04 03:09:37;;;;;;;1.07;0.70;;;7.80;99.90;;;;;;4957459;28;20203;-82
2023/11/04 03:12:12;;;;;;;1.80;0.70;;;7.80;99.90;;;;;;4957453;28;20183;-82
2023/11/04 03:14:48;;;;;;;0.80;0.63;;;7.80;99.90;;;;;;4956729;28;20530;-82
2023/11/04 03:17:19;;;;;;;1.43;0.80;;;7.80;99.90;;;;;;4957957;28;20201;-82
2023/11/04 03:19:48;;;;;;;0.90;0.70;;;7.80;99.90;;;;;;4956517;28;20291;-82
2023/11/04 03:22:18;;;;;;;1.10;0.90;;;7.80;99.90;;;;;;4956946;28;20231;-82
2023/11/04 03:24:50;;;;;;;3.23;1.20;;;7.80;99.90;;;;;;4974456;28;20194;-82
2023/11/04 03:27:22;;;;;;;2.60;1.30;;;7.80;99.90;;;;;;4940922;28;20201;-83
2023/11/04 03:29:57;;;;;;;1.53;0.83;;;7.80;99.90;;;;;;4956249;28;20232;-82
2023/11/04 03:32:30;;;;;;;0.80;0.80;;;7.80;99.90;;;;;;4957259;28;20428;-82
2023/11/04 03:35:02;;;;;;;1.77;0.80;;;7.80;99.90;;;;;;4956104;28;20736;-82
2023/11/04 03:37:39;;;;;;;0.93;0.73;;;7.80;99.90;;;;;;4941306;28;20259;-82
2023/11/04 03:40:09;;;;;;;1.63;0.97;;;7.90;99.90;;;;;;4956633;28;20224;-83
2023/11/04 03:42:47;;;;;;;0.90;0.70;;;7.80;99.90;;;;;;4941434;28;20560;-82
2023/11/04 03:45:23;;;;;;;3.30;1.10;;;7.80;99.90;;;;;;4956605;28;20197;-82
2023/11/04 03:47:54;;;;;;;1.20;0.80;;;7.90;99.90;;;;;;4956465;28;20224;-82
2023/11/04 03:50:28;;;;;;;1.67;1.00;;;7.90;99.90;;;;;;4957144;28;20197;-82
2023/11/04 03:53:08;;;;;;;3.27;1.23;;;7.70;99.90;;;;;;4958137;28;20185;-82
2023/11/04 03:55:37;;;;;;;2.53;1.20;;;7.90;99.90;;;;;;4973287;28;20196;-82
2023/11/04 03:58:17;;;;;;;2.73;1.40;;;7.60;99.90;;;;;;4941981;28;20292;-82
2023/11/04 04:00:47;;;;;;;1.90;1.17;;;7.90;99.90;;;;;;4956860;28;20287;-81
2023/11/04 04:03:19;;;;;;;1.20;1.00;;;7.80;99.90;;;;;;4956436;28;20210;-82
2023/11/04 04:05:55;;;;;;;1.47;0.90;;;7.80;99.90;;;;;;4940429;28;20228;-82
2023/11/04 04:08:27;;;;;;;1.57;0.97;;;7.80;99.90;;;;;;4955729;28;20193;-82
2023/11/04 04:10:56;;;;;;;2.63;1.00;;;7.90;99.90;;;;;;4940395;28;20194;-83
2023/11/04 04:13:27;;;;;;;1.00;0.90;;;8.00;99.90;;;;;;4955604;28;20610;-82
2023/11/04 04:15:58;;;;;;;1.67;1.20;;;7.90;99.90;;;;;;4941420;28;20196;-81
2023/11/04 04:18:47;;;;;;;1.90;1.33;;;7.70;99.90;;;;;;4960061;28;20228;-81
2023/11/04 04:21:19;;;;;;;1.60;1.23;;;7.90;99.90;;;;;;4956054;28;20227;-82
2023/11/04 04:23:50;;;;;;;2.93;1.20;;;8.20;99.90;;;;;;4940074;28;20200;-81
2023/11/04 04:26:23;;;;;;;2.50;1.17;;;8.10;99.90;;;;;;4940303;28;20299;-82
2023/11/04 04:28:52;;;;;;;1.20;1.10;;;7.90;99.90;;;;;;4956206;28;20198;-83
2023/11/04 04:31:29;;;;;;;1.67;1.00;;;8.00;99.90;;;;;;4957051;28;20624;-81
2023/11/04 04:34:06;;;;;;;1.20;0.90;;;8.00;99.90;;;;;;4957112;28;20213;-82
2023/11/04 04:36:44;;;;;;;2.20;0.83;;;7.70;99.90;;;;;;4940203;28;20657;-82
2023/11/04 04:39:37;;;;;;;1.27;0.90;;;8.00;99.90;;;;;;4973179;28;20554;-83
2023/11/04 04:42:10;;;;;;;1.87;1.07;;;8.10;99.90;;;;;;4955088;28;20677;-82
2023/11/04 04:44:38;;;;;;;1.67;1.00;;;8.10;99.90;;;;;;4939348;28;20244;-83
2023/11/04 04:47:10;;;;;;;2.27;0.90;;;8.10;99.90;;;;;;4972669;28;20188;-82
2023/11/04 04:49:44;;;;;;;2.13;1.00;;;8.20;99.90;;;;;;4955160;28;20240;-82
2023/11/04 04:52:17;;;;;;;1.13;0.97;;;8.10;99.90;;;;;;4940307;28;20215;-83
2023/11/04 04:54:52;;;;;;;1.30;0.90;;;8.10;99.90;;;;;;4955530;28;20251;-82
2023/11/04 04:57:23;;;;;;;1.97;0.97;;;8.00;99.90;;;;;;4972733;28;20668;-81
2023/11/04 05:00:05;;;;;;;1.10;0.80;;;8.20;99.90;;;;;;4956068;28;20193;-82
2023/11/04 05:02:35;;;;;;;3.03;1.10;;;8.00;99.90;;;;;;4940017;28;20312;-82
2023/11/04 05:05:09;;;;;;;1.40;0.90;;;8.10;99.90;;;;;;4955110;28;20215;-82
2023/11/04 05:07:42;;;;;;;3.33;0.90;;;8.10;99.90;;;;;;4954671;28;20200;-81
2023/11/04 05:10:14;;;;;;;2.53;1.10;;;8.10;99.90;;;;;;4955238;28;20200;-83
2023/11/04 05:12:51;;;;;;;1.30;1.00;;;8.10;99.90;;;;;;4939745;28;20263;-83
2023/11/04 05:15:20;;;;;;;1.10;0.87;;;8.10;99.90;;;;;;4955288;28;20199;-82
2023/11/04 05:17:56;;;;;;;2.27;1.20;;;8.30;99.90;;;;;;4955495;28;20224;-81
2023/11/04 05:20:25;;;;;;;1.53;1.00;;;8.10;99.90;;;;;;4939236;28;20210;-82
2023/11/04 05:22:57;;;;;;;1.10;1.00;;;8.10;99.90;;;;;;4959581;28;20196;-83
2023/11/04 05:25:27;;;;;;;4.50;1.20;;;8.30;99.90;;;;;;4958467;28;20211;-83
2023/11/04 05:27:59;;;;;;;2.73;1.10;;;8.10;99.90;;;;;;4957810;28;20212;-83
2023/11/04 05:30:34;;;;;;;2.10;1.17;;;8.40;99.90;;;;;;4975867;28;20187;-83
2023/11/04 05:33:07;;;;;;;12.10;1.90;;;8.20;99.90;;;;;;4959042;28;20300;-81
2023/11/04 05:35:36;;;;;;;3.43;1.40;;;8.10;99.90;;;;;;4959518;28;20672;-81
2023/11/04 05:38:10;;;;;;;1.40;1.10;;;8.20;99.90;;;;;;4959748;28;20533;-80
2023/11/04 05:40:45;;;;;;;1.10;1.00;;;8.20;99.90;;;;;;4958325;28;20224;-81
2023/11/04 05:43:32;;;;;;;4.20;1.27;;;8.20;99.90;;;;;;4959659;28;20174;-82
2023/11/04 05:46:03;;;;;;;1.93;1.10;;;8.10;99.90;;;;;;4959025;28;20188;-81
2023/11/04 05:48:45;;;;;;;1.63;1.10;;;8.20;99.90;;;;;;4958523;28;20243;-81
2023/11/04 05:51:25;;;;;;;1.13;1.00;;;8.20;99.90;;;;;;4959102;28;20206;-81
2023/11/04 05:53:56;;;;;;;4.50;1.40;;;8.20;99.90;;;;;;4943437;28;20726;-82
2023/11/04 05:56:29;;;;;;;3.30;1.20;;;8.20;99.90;;;;;;4942710;28;20296;-81
2023/11/04 05:59:03;;;;;;;1.37;1.20;;;8.20;99.90;;;;;;4942834;28;20203;-82
2023/11/04 06:01:36;;;;;;;1.40;1.10;;;8.10;99.90;;;;;;4958853;28;20328;-82
2023/11/04 06:04:17;;;;;;;3.03;1.27;;;8.20;99.90;;;;;;4942795;28;20783;-82
2023/11/04 06:06:54;;;;;;;3.53;1.10;;;8.20;99.90;;;;;;4958605;28;20211;-81
2023/11/04 06:10:06;;;;;;;2.10;1.10;;;8.20;99.90;;;;;;4963169;28;20556;-82
2023/11/04 06:13:13;;;;;;;2.40;1.10;;;8.30;99.90;;;;;;4896424;29;20286;-82
2023/11/04 06:15:57;;;;;;;2.30;1.27;;;8.30;99.90;;;;;;4862272;29;20211;-81
2023/11/04 06:18:26;;;;;;;2.43;1.20;;;8.40;99.90;;;;;;4878045;29;20679;-80
2023/11/04 06:20:58;;;;;;;2.77;1.20;;;8.30;99.90;;;;;;4863215;29;20247;-81
2023/11/04 06:23:27;;;;;;;2.03;1.20;;;8.30;99.90;;;;;;4862907;29;20220;-81
2023/11/04 06:25:56;;;;;;;1.70;1.07;;;8.20;99.90;;;;;;4877657;29;20208;-81
2023/11/04 06:28:28;;;;;;;2.83;1.60;;;8.20;99.90;;;;;;4878448;29;20303;-81
2023/11/04 06:31:09;;;;;;;2.90;1.40;;;8.30;99.90;;;;;;4861923;29;20233;-81
2023/11/04 06:33:38;;;;;;;5.53;1.20;;;8.50;99.90;;;;;;4878285;29;20296;-82
2023/11/04 06:36:07;;;;;;;2.57;1.30;;;8.50;99.90;;;;;;4861967;29;20215;-82
2023/11/04 06:38:37;;;;;;;2.90;1.20;;;8.30;99.90;;;;;;4861897;29;20617;-82
2023/11/04 06:41:16;;;;;;;3.83;1.47;;;8.30;99.90;;;;;;4893415;29;20251;-82
2023/11/04 06:44:00;;;;;;;2.17;1.50;;;8.40;99.90;;;;;;4935591;28;20293;-82
2023/11/04 06:46:33;;;;;;;2.70;1.23;;;8.40;99.90;;;;;;4957317;28;20198;-83
2023/11/04 06:49:01;;;;;;;2.73;1.40;;;8.40;99.90;;;;;;4957423;28;20236;-81
2023/11/04 06:51:39;;;;;;;1.60;1.20;;;8.40;99.90;;;;;;4956469;28;20495;-82
2023/11/04 06:54:16;;;;;;;2.77;1.53;;;8.40;99.90;;;;;;4974081;28;20719;-82
2023/11/04 06:56:48;;;;;;;2.70;1.30;;;8.40;99.90;;;;;;4957105;28;20200;-82
2023/11/04 06:59:19;;;;;;;2.37;1.60;;;8.40;99.90;;;;;;4941474;28;20204;-82
2023/11/04 07:01:49;;;;;;;4.80;1.60;;;8.50;99.90;;;;;;4956996;28;20237;-82
2023/11/04 07:04:20;;;;;;;2.93;1.47;;;8.40;99.90;;;;;;4956900;28;20225;-82
2023/11/04 07:06:53;;;;;;;2.27;1.30;;;8.50;99.90;;;;;;4957160;28;20690;-82
2023/11/04 07:09:27;;;;;;;2.83;1.53;;;8.50;99.90;;;;;;4957220;28;20193;-82
2023/11/04 07:11:55;;;;;;;1.90;1.23;;;8.60;99.90;;;;;;4940662;28;20583;-80
2023/11/04 07:14:30;;;;;;;3.93;1.70;;;8.80;99.90;;;;;;4958189;28;20612;-81
2023/11/04 07:16:59;;;;;;;2.27;1.50;;;8.30;99.90;;;;;;4957234;28;20279;-82
2023/11/04 07:19:29;;;;;;;2.57;1.50;;;8.60;99.90;;;;;;4941215;28;20247;-82
2023/11/04 07:22:11;;;;;;;2.00;1.40;;;8.60;99.90;;;;;;4941143;28;20254;-81
2023/11/04 07:24:45;;;;;;;4.47;1.60;;;8.50;99.90;;;;;;4941837;28;20193;-83
2023/11/04 07:27:16;;;;;;;4.23;1.70;;;8.80;99.90;;;;;;4940213;28;20204;-82
2023/11/04 07:29:46;;;;;;;3.93;1.80;;;8.60;99.90;;;;;;4956584;28;20211;-81
2023/11/04 07:32:22;;;;;;;3.50;1.60;;;8.70;99.90;;;;;;4973927;28;20295;-83
2023/11/04 07:34:58;;;;;;;3.00;1.73;;;8.50;99.90;;;;;;4957439;28;20189;-80
2023/11/04 07:37:28;;;;;;;2.67;1.70;;;8.70;99.90;;;;;;4956799;28;20201;-82
2023/11/04 07:40:04;;;;;;;2.90;1.67;;;8.70;99.90;;;;;;4956317;28;20229;-82
2023/11/04 07:42:36;;;;;;;3.50;2.00;;;8.80;99.90;;;;;;4894704;29;20240;-81
2023/11/04 07:45:27;;;;;;;5.10;2.20;;;8.70;99.90;;;;;;4879372;29;20207;-82
2023/11/04 07:48:03;;;;;;;2.63;1.70;;;8.80;99.90;;;;;;4894346;29;20683;-82
2023/11/04 07:50:46;;;;;;;3.10;2.00;;;8.80;99.90;;;;;;4857219;29;20209;-81
2023/11/04 07:53:34;;;;;;;5.13;2.00;;;8.80;99.90;;;;;;4855715;29;20244;-81
2023/11/04 07:56:09;;;;;;;2.97;1.90;;;8.80;99.90;;;;;;4842125;29;20279;-81
2023/11/04 07:58:40;;;;;;;2.80;1.97;;;8.90;99.90;;;;;;4875565;29;20229;-80
2023/11/04 08:01:09;;;;;;;3.53;2.17;;;8.70;99.90;;;;;;4901437;29;20233;-81
2023/11/04 08:03:39;;;;;;;3.30;2.13;;;8.90;99.90;;;;;;4897988;29;20732;-80
2023/11/04 08:06:08;;;;;;;4.73;2.33;;;9.00;99.90;;;;;;4898062;29;20290;-80
2023/11/04 08:08:37;;;;;;;6.20;1.90;;;8.80;99.90;;;;;;4906134;29;20237;-80
2023/11/04 08:11:13;;;;;;;3.43;2.10;;;8.90;99.90;;;;;;4916717;29;20710;-80
2023/11/04 08:13:41;;;;;;;3.47;2.00;;;8.90;99.90;;;;;;4930920;29;20206;-80
2023/11/04 08:16:10;;;;;;;3.50;2.17;;;9.00;99.90;;;;;;4941142;28;20228;-81
2023/11/04 08:18:42;;;;;;;4.43;2.40;;;9.00;99.90;;;;;;4940397;28;20549;-81
2023/11/04 08:21:29;;;;;;;3.77;2.20;;;9.30;99.90;;;;;;4957359;28;20252;-81
2023/11/04 08:24:11;;;;;;;3.87;2.10;;;9.20;99.90;;;;;;4956912;28;20629;-81
2023/11/04 08:26:41;;;;;;;3.10;2.33;;;9.40;99.90;;;;;;4973160;28;20196;-81
2023/11/04 08:29:13;;;;;;;4.40;2.20;;;9.30;99.90;;;;;;4956403;28;20197;-81
2023/11/04 08:31:41;;;;;;;3.13;1.87;;;9.30;99.90;;;;;;4955523;28;20205;-81
2023/11/04 08:34:13;;;;;;;5.57;1.90;;;9.60;99.90;;;;;;4955496;28;20217;-82
2023/11/04 08:36:45;;;;;;;2.43;1.90;;;9.80;99.90;;;;;;4955828;28;20202;-82
2023/11/04 08:39:14;;;;;;;3.00;1.80;;;9.60;99.90;;;;;;4955120;28;20303;-81
2023/11/04 08:41:46;;;;;;;3.63;1.80;;;9.70;99.90;;;;;;4956327;28;20221;-82
2023/11/04 08:44:22;;;;;;;2.93;1.93;;;9.90;99.90;;;;;;4955536;28;20215;-81
2023/11/04 08:46:51;;;;;;;4.00;1.90;;;9.90;99.90;;;;;;4955521;28;20288;-81
2023/11/04 08:49:19;;;;;;;3.30;2.07;;;9.90;99.90;;;;;;4972343;28;20593;-81
2023/11/04 08:51:58;;;;;;;3.93;1.90;;;10.00;99.90;;;;;;4972585;28;20182;-81
2023/11/04 08:54:26;;;;;;;4.27;2.03;;;10.00;99.90;;;;;;4955469;28;20546;-80
2023/11/04 08:56:58;;;;;;;3.07;2.10;;;10.20;99.90;;;;;;4955792;28;20186;-80
2023/11/04 08:59:47;;;;;;;3.03;1.90;;;10.20;99.90;;;;;;4969336;28;20264;-80
2023/11/04 09:02:15;;;;;;;4.83;2.00;;;10.40;99.90;;;;;;4955625;28;20229;-80
2023/11/04 09:04:43;;;;;;;3.93;1.73;;;10.60;99.90;;;;;;4972694;28;20203;-82
2023/11/04 09:07:36;;;;;;;2.87;1.83;;;10.70;99.90;;;;;;4954998;28;20197;-82
2023/11/04 09:10:07;;;;;;;3.47;2.03;;;10.60;99.90;;;;;;4972124;28;20256;-81
2023/11/04 09:12:43;;;;;;;4.00;2.03;;;10.50;99.90;;;;;;4970513;28;20208;-80
2023/11/04 09:15:15;;;;;;;2.43;1.83;;;10.60;99.90;;;;;;4972224;28;20272;-79
2023/11/04 09:17:52;;;;;;;3.87;1.80;;;10.50;99.90;;;;;;4972210;28;20229;-80
2023/11/04 09:20:23;;;;;;;3.77;1.83;;;10.50;99.90;;;;;;4972298;28;20212;-81
2023/11/04 09:23:06;;;;;;;3.20;2.00;;;10.50;99.90;;;;;;4953980;28;20278;-81
2023/11/04 09:25:47;;;;;;;4.10;2.10;;;10.50;99.90;;;;;;4955829;28;20216;-80
2023/11/04 09:28:18;;;;;;;4.70;1.70;;;10.70;99.90;;;;;;4936291;28;20292;-80
2023/11/04 09:30:46;;;;;;;3.77;1.73;;;10.60;99.90;;;;;;4972660;28;20285;-79
2023/11/04 09:33:29;;;;;;;3.50;1.70;;;10.60;99.90;;;;;;4972154;28;20213;-81
2023/11/04 09:36:10;;;;;;;3.73;1.77;;;10.80;99.90;;;;;;4939215;28;20508;-80
2023/11/04 09:38:42;;;;;;;3.27;1.63;;;10.70;99.90;;;;;;4972170;28;20178;-74
2023/11/04 09:41:15;;;;;;;3.73;1.67;;;10.70;99.90;;;;;;4971616;28;20593;-77
2023/11/04 09:43:52;;;;;;;2.67;1.77;;;10.80;99.90;;;;;;4971064;28;20292;-75
2023/11/04 09:46:20;;;;;;;3.20;1.70;;;11.20;99.90;;;;;;4970736;28;20196;-76
2023/11/04 09:48:53;;;;;;;3.60;1.90;;;11.50;99.90;;;;;;4953822;28;20577;-81
2023/11/04 09:51:26;;;;;;;2.20;1.60;;;11.50;99.90;;;;;;4972079;28;20193;-76
2023/11/04 09:54:00;;;;;;;2.50;1.70;;;11.90;99.90;;;;;;4972105;28;20197;-75
2023/11/04 09:56:31;;;;;;;2.70;1.70;;;12.30;99.90;;;;;;4971611;28;20651;-78
2023/11/04 09:58:59;;;;;;;5.43;1.90;;;12.50;99.90;;;;;;4971540;28;20206;-76
2023/11/04 10:01:33;;;;;;;3.15;1.65;;;12.50;99.90;;;;;;4954249;28;20206;-83
2023/11/04 10:04:01;;;;;;;5.07;2.00;;;12.20;99.90;;;;;;4955033;28;20221;-84
2023/11/04 10:06:32;;;;;;;2.87;1.80;;;12.20;99.90;;;;;;4955180;28;20197;-80
2023/11/04 10:09:06;;;;;;;2.87;1.90;;;12.30;99.90;;;;;;4942679;28;20205;-83
2023/11/04 10:11:44;;;;;;;3.40;1.50;;;12.40;99.90;;;;;;4959240;28;20228;-82
2023/11/04 10:14:27;;;;;;;2.53;1.60;;;12.40;99.90;;;;;;4942762;28;20213;-83
2023/11/04 10:16:57;;;;;;;3.47;1.60;;;12.20;99.90;;;;;;4957614;28;20684;-83
2023/11/04 10:19:32;;;;;;;4.77;1.80;;;12.30;99.90;;;;;;4957853;28;20677;-83
2023/11/04 10:22:04;;;;;;;3.03;1.80;;;12.30;99.90;;;;;;4942728;28;20221;-83
2023/11/04 10:24:33;;;;;;;3.40;2.00;;;12.20;99.90;;;;;;4957851;28;20201;-80
2023/11/04 10:27:16;;;;;;;2.77;1.60;;;12.00;99.90;;;;;;4958246;28;20347;-80
2023/11/04 10:29:48;;;;;;;5.00;2.10;;;12.10;99.90;;;;;;4957570;28;20198;-83
2023/11/04 10:32:20;;;;;;;4.47;2.00;;;12.00;99.90;;;;;;4941734;28;20559;-83
2023/11/04 10:34:56;;;;;;;3.30;1.90;;;11.90;99.90;;;;;;4958160;28;20205;-84
2023/11/04 10:37:35;;;;;;;4.30;2.03;;;12.00;99.90;;;;;;4942375;28;20197;-85
2023/11/04 10:40:10;;;;;;;4.17;2.10;;;12.20;99.90;;;;;;4957692;28;20205;-83
2023/11/04 10:43:03;;;;;;;3.93;1.93;;;12.50;99.90;;;;;;4944105;28;20228;-84
2023/11/04 10:46:07;;;;;;;3.80;1.80;;;12.70;99.90;;;;;;4956953;28;20206;-83
2023/11/04 10:49:01;;;;;;;6.33;1.90;;;12.80;99.90;;;;;;4958689;28;20695;-79
2023/11/04 10:51:44;;;;;;;4.83;2.20;;;12.70;99.90;;;;;;4957710;28;20209;-83
2023/11/04 10:54:31;;;;;;;3.70;2.03;;;12.70;99.90;;;;;;4958043;28;20232;-84
2023/11/04 10:57:30;;;;;;;3.43;2.03;;;12.60;99.90;;;;;;4960071;28;20205;-84
2023/11/04 11:00:15;;;;;;;5.53;2.13;;;12.70;99.90;;;;;;4942325;28;20320;-83
2023/11/04 11:02:45;;;;;;;5.03;2.33;;;12.60;99.90;;;;;;4957815;28;20233;-84
2023/11/04 11:05:14;;;;;;;6.23;2.97;;;12.50;99.90;;;;;;4957273;28;20212;-83
2023/11/04 11:07:52;;;;;;;6.50;2.40;;;12.50;99.90;;;;;;4941824;28;20264;-83
2023/11/04 11:11:23;;;;;;;4.47;2.27;;;12.30;99.90;;;;;;4957216;28;20205;-83
2023/11/04 11:14:01;;;;;;;4.43;2.10;;;12.40;99.90;;;;;;4936589;28;20193;-81
2023/11/04 11:16:34;;;;;;;4.90;2.40;;;12.50;99.90;;;;;;4973867;28;20288;-82
2023/11/04 11:19:11;;;;;;;4.93;2.23;;;12.30;99.90;;;;;;4973958;28;20219;-82
2023/11/04 11:21:49;;;;;;;5.83;2.10;;;12.30;99.90;;;;;;4957460;28;20217;-81
2023/11/04 11:24:20;;;;;;;4.93;2.23;;;12.00;99.90;;;;;;4956549;28;20550;-80
2023/11/04 11:26:50;;;;;;;3.87;2.10;;;12.10;99.90;;;;;;4974418;28;20192;-80
2023/11/04 11:29:24;;;;;;;3.77;1.70;;;12.10;99.90;;;;;;4956375;28;20310;-82
2023/11/04 11:32:08;;;;;;;3.83;1.90;;;12.00;99.90;;;;;;4956515;28;20679;-82
2023/11/04 11:35:02;;;;;;;3.87;1.93;;;12.00;99.90;;;;;;4973245;28;20392;-82
2023/11/04 11:37:50;;;;;;;3.90;1.93;;;12.20;99.90;;;;;;4956949;28;20693;-82
2023/11/04 11:40:39;;;;;;;4.53;1.80;;;12.30;99.90;;;;;;4942290;28;20212;-82
2023/11/04 11:43:29;;;;;;;4.00;2.00;;;12.30;99.90;;;;;;4954321;28;20316;-82
2023/11/04 11:45:58;;;;;;;3.80;1.93;;;12.40;99.90;;;;;;4956914;28;20193;-83
2023/11/04 11:48:27;;;;;;;4.20;1.90;;;12.50;99.90;;;;;;4973100;28;20240;-82
2023/11/04 11:50:55;;;;;;;3.90;2.00;;;12.70;99.90;;;;;;4940590;28;20202;-82
2023/11/04 11:53:23;;;;;;;2.90;1.90;;;12.80;99.90;;;;;;4939845;28;20235;-80
2023/11/04 11:56:14;;;;;;;3.90;1.90;;;12.60;99.90;;;;;;4940602;28;20208;-82
2023/11/04 11:59:13;;;;;;;3.27;1.87;;;12.80;99.90;;;;;;4959128;28;20232;-83
2023/11/04 12:02:07;;;;;;;3.03;1.70;;;12.70;99.90;;;;;;4943340;28;20552;-81
2023/11/04 12:05:31;;;;;;;3.60;1.77;;;12.60;99.90;;;;;;4958026;28;20210;-89
2023/11/04 12:08:36;;;;;;;3.40;1.50;;;12.50;99.90;;;;;;4909740;29;20217;-82
2023/11/04 12:11:17;;;;;;;3.40;1.60;;;12.60;99.90;;;;;;4932234;29;20202;-83
2023/11/04 12:13:49;;;;;;;3.87;1.80;;;12.70;99.90;;;;;;4917148;29;20207;-82
2023/11/04 12:16:20;;;;;;;4.40;2.00;;;12.70;99.90;;;;;;4932767;29;20195;-81
2023/11/04 12:18:59;;;;;;;3.50;1.80;;;12.70;99.90;;;;;;4916679;29;20222;-82
2023/11/04 12:21:30;;;;;;;2.43;1.80;;;12.80;99.90;;;;;;4915539;29;20202;-81
2023/11/04 12:24:04;;;;;;;3.53;1.60;;;12.90;99.90;;;;;;4915180;29;20295;-80
2023/11/04 12:26:37;;;;;;;4.70;1.70;;;13.10;99.90;;;;;;4933000;29;20191;-82
2023/11/04 12:29:19;;;;;;;2.40;1.70;;;13.10;99.90;;;;;;4900861;29;20222;-82
2023/11/04 12:31:49;;;;;;;3.43;2.00;;;13.00;99.90;;;;;;4916197;29;20638;-83
2023/11/04 12:34:27;;;;;;;3.70;1.70;;;13.30;99.90;;;;;;4916429;29;20327;-82
2023/11/04 12:37:02;;;;;;;2.17;1.43;;;13.30;99.90;;;;;;4917188;29;20264;-82
2023/11/04 12:39:34;;;;;;;3.87;1.87;;;13.30;99.90;;;;;;4916611;29;20191;-82
2023/11/04 12:42:29;;;;;;;2.67;1.70;;;13.10;99.90;;;;;;4915142;29;20203;-83
2023/11/04 12:45:33;;;;;;;2.70;1.53;;;13.10;99.90;;;;;;4969424;28;20206;-85
2023/11/04 12:48:09;;;;;;;3.67;1.77;;;12.90;99.90;;;;;;5154068;23;20251;-83
2023/11/04 12:51:15;;;;;;;;;;;;;;;;;;;;;
2023/11/04 12:54:10;;;;;;;3.40;1.90;;;13.30;99.90;;;;;;4991836;28;20362;-82
2023/11/04 12:57:10;;;;;;;3.37;1.70;;;13.50;99.90;;;;;;4976506;28;20660;-82
2023/11/04 13:00:09;;;;;;;2.60;1.50;;;13.60;99.90;;;;;;4964987;28;20655;-83
2023/11/04 13:02:58;;;;;;;3.73;1.40;;;13.40;99.90;;;;;;4995020;28;20212;-81
2023/11/04 13:05:41;;;;;;;2.50;1.40;;;13.20;99.90;;;;;;5011055;28;20546;-83
2023/11/04 13:09:07;;;;;;;2.40;1.50;;;12.90;99.90;;;;;;4996628;28;20206;-85
2023/11/04 13:11:50;;;;;;;5.03;1.87;;;12.70;99.90;;;;;;5026108;28;20604;-83
2023/11/04 13:14:37;;;;;;;2.57;1.57;;;12.80;99.90;;;;;;4995664;28;20234;-83
2023/11/04 13:17:08;;;;;;;2.20;1.50;;;12.90;99.90;;;;;;4994472;28;20202;-83
2023/11/04 13:19:39;;;;;;;2.50;1.33;;;12.90;99.90;;;;;;5010978;28;20671;-83
2023/11/04 13:22:22;;;;;;;2.67;1.63;;;12.50;99.90;;;;;;4995129;28;20218;-82
2023/11/04 13:25:06;;;;;;;3.57;1.60;;;12.30;99.90;;;;;;4993927;28;20230;-84
2023/11/04 13:27:48;;;;;;;4.00;1.97;;;12.40;99.90;;;;;;4994650;28;20196;-85
2023/11/04 13:30:22;;;;;;;4.70;2.07;;;12.40;99.90;;;;;;5009683;28;20200;-83
2023/11/04 13:33:16;;;;;;;3.33;1.90;;;12.40;99.90;;;;;;5010252;28;20216;-84
2023/11/04 13:35:58;;;;;;;3.70;1.80;;;12.30;99.90;;;;;;5010002;28;20188;-84
2023/11/04 13:38:33;;;;;;;3.33;1.63;;;12.30;99.90;;;;;;5012183;28;20254;-83
2023/11/04 13:41:12;;;;;;;3.63;1.43;;;12.20;99.90;;;;;;5011021;28;20214;-84